createdAt,value
2019-05-09T00:00:14.191Z,55.00
2019-05-09T00:02:43.658Z,54.80
2019-05-09T00:05:13.789Z,54.90
2019-05-09T00:07:43.791Z,55.20
2019-05-09T00:10:14.076Z,55.40
2019-05-09T00:12:43.740Z,55.50
2019-05-09T00:15:13.642Z,55.80
2019-05-09T00:17:43.822Z,55.80
2019-05-09T00:20:29.101Z,55.90
2019-05-09T00:22:56.841Z,56.00
2019-05-09T00:25:24.540Z,56.10
2019-05-09T00:27:53.704Z,55.80
2019-05-09T00:30:41.010Z,55.70
2019-05-09T00:33:08.850Z,55.70
2019-05-09T00:35:39.251Z,55.60
2019-05-09T00:38:08.217Z,55.60
2019-05-09T00:40:35.970Z,55.60
2019-05-09T00:43:04.150Z,55.30
2019-05-09T00:45:54.280Z,55.20
2019-05-09T00:48:26.141Z,54.60
2019-05-09T00:50:54.514Z,54.00
2019-05-09T00:53:23.252Z,53.50
2019-05-09T00:55:52.918Z,52.90
2019-05-09T00:58:20.910Z,52.90
2019-05-09T01:00:48.912Z,52.20
2019-05-09T01:03:16.659Z,52.30
2019-05-09T01:05:47.355Z,51.90
2019-05-09T01:08:14.858Z,51.90
2019-05-09T01:10:43.611Z,51.30
2019-05-09T01:13:11.591Z,51.30
2019-05-09T01:15:39.425Z,51.10
2019-05-09T01:18:07.173Z,50.90
2019-05-09T01:20:34.794Z,50.80
2019-05-09T01:23:03.496Z,50.60
2019-05-09T01:25:33.365Z,50.70
2019-05-09T01:28:03.137Z,51.10
2019-05-09T01:30:30.522Z,51.00
2019-05-09T01:33:16.429Z,51.10
2019-05-09T01:35:44.257Z,51.10
2019-05-09T01:38:13.981Z,51.00
2019-05-09T01:40:43.853Z,51.40
2019-05-09T01:43:13.682Z,51.80
2019-05-09T01:45:43.032Z,51.70
2019-05-09T01:48:10.881Z,51.70
2019-05-09T01:50:38.499Z,51.70
2019-05-09T01:53:06.244Z,52.20
2019-05-09T01:55:53.947Z,52.10
2019-05-09T01:58:23.252Z,52.60
2019-05-09T02:00:51.017Z,52.50
2019-05-09T02:03:23.332Z,53.00
2019-05-09T02:05:53.093Z,53.50
2019-05-09T02:08:20.682Z,53.50
2019-05-09T02:10:48.907Z,54.10
2019-05-09T02:13:16.755Z,54.50
2019-05-09T02:15:54.687Z,55.00
2019-05-09T02:18:28.520Z,55.20
2019-05-09T02:20:56.229Z,55.30
2019-05-09T02:23:24.019Z,55.50
2019-05-09T02:25:53.247Z,55.70
2019-05-09T02:28:20.965Z,55.90
2019-05-09T02:30:48.659Z,55.80
2019-05-09T02:33:16.757Z,55.90
2019-05-09T02:35:55.848Z,55.70
2019-05-09T02:38:14.039Z,55.80
2019-05-09T02:40:42.074Z,56.00
2019-05-09T02:43:10.223Z,56.10
2019-05-09T02:45:52.491Z,55.80
2019-05-09T02:48:20.425Z,54.90
2019-05-09T02:50:48.673Z,54.50
2019-05-09T02:53:18.886Z,53.60
2019-05-09T02:55:50.227Z,53.10
2019-05-09T02:58:20.571Z,53.10
2019-05-09T03:01:08.370Z,52.70
2019-05-09T03:03:39.307Z,53.20
2019-05-09T03:06:09.181Z,52.20
2019-05-09T03:08:38.349Z,52.10
2019-05-09T03:11:09.375Z,51.70
2019-05-09T03:13:39.177Z,51.50
2019-05-09T03:16:12.190Z,51.50
2019-05-09T03:18:40.129Z,51.50
2019-05-09T03:21:19.182Z,51.20
2019-05-09T03:23:48.908Z,51.00
2019-05-09T03:26:20.680Z,50.70
2019-05-09T03:29:08.751Z,50.80
2019-05-09T03:31:39.444Z,51.00
2019-05-09T03:34:09.399Z,50.20
2019-05-09T03:36:38.541Z,49.80
2019-05-09T03:39:08.217Z,49.60
2019-05-09T03:41:36.003Z,49.30
2019-05-09T03:44:03.941Z,49.00
2019-05-09T03:46:52.764Z,48.70
2019-05-09T03:49:21.316Z,48.70
2019-05-09T03:51:49.182Z,48.20
2019-05-09T03:54:18.384Z,48.50
2019-05-09T03:56:50.873Z,47.60
2019-05-09T03:59:18.621Z,47.30
2019-05-09T04:01:49.377Z,46.70
2019-05-09T04:04:17.590Z,46.50
2019-05-09T04:06:47.934Z,46.10
2019-05-09T04:09:15.160Z,45.90
2019-05-09T04:11:42.872Z,45.50
2019-05-09T04:14:14.531Z,45.60
2019-05-09T04:16:44.999Z,45.70
2019-05-09T04:19:12.733Z,45.30
2019-05-09T04:21:40.333Z,45.30
2019-05-09T04:24:08.614Z,44.80
2019-05-09T04:26:42.093Z,44.70
2019-05-09T04:29:09.836Z,44.60
2019-05-09T04:31:38.377Z,44.50
2019-05-09T04:34:07.698Z,44.50
2019-05-09T04:36:38.757Z,44.40
2019-05-09T04:39:12.739Z,44.00
2019-05-09T04:41:40.710Z,43.50
2019-05-09T04:44:16.756Z,43.60
2019-05-09T04:46:41.478Z,43.10
2019-05-09T04:49:09.371Z,43.00
2019-05-09T04:51:39.323Z,42.00
2019-05-09T04:54:08.348Z,42.30
2019-05-09T04:56:38.364Z,42.10
2019-05-09T04:59:07.481Z,42.10
2019-05-09T05:01:54.842Z,41.40
2019-05-09T05:04:24.582Z,41.50
2019-05-09T05:06:52.372Z,41.60
2019-05-09T05:09:22.463Z,40.90
2019-05-09T05:11:50.249Z,40.40
2019-05-09T05:14:23.622Z,40.40
2019-05-09T05:16:55.593Z,40.50
2019-05-09T05:19:25.085Z,40.50
2019-05-09T05:21:58.358Z,41.20
2019-05-09T05:24:45.566Z,40.00
2019-05-09T05:27:13.472Z,40.50
2019-05-09T05:29:41.236Z,40.30
2019-05-09T05:32:17.786Z,40.00
2019-05-09T05:35:22.821Z,39.80
2019-05-09T05:37:50.482Z,39.60
2019-05-09T05:40:21.282Z,40.30
2019-05-09T05:42:48.998Z,39.30
2019-05-09T05:45:18.108Z,39.90
2019-05-09T05:48:07.786Z,40.00
2019-05-09T05:50:35.434Z,39.10
2019-05-09T05:53:03.186Z,39.10
2019-05-09T05:55:37.816Z,39.10
2019-05-09T05:58:10.804Z,38.70
2019-05-09T06:00:38.532Z,38.30
2019-05-09T06:03:08.563Z,38.50
2019-05-09T06:05:38.351Z,38.00
2019-05-09T06:08:08.292Z,37.80
2019-05-09T06:10:38.669Z,38.10
2019-05-09T06:13:07.969Z,37.60
2019-05-09T06:15:37.940Z,37.90
2019-05-09T06:18:07.913Z,37.80
2019-05-09T06:20:38.354Z,37.80
2019-05-09T06:23:05.691Z,37.70
2019-05-09T06:25:38.749Z,38.30
2019-05-09T06:28:07.545Z,38.20
2019-05-09T06:30:41.214Z,37.60
2019-05-09T06:33:09.178Z,37.20
2019-05-09T06:35:38.874Z,37.40
2019-05-09T06:38:09.459Z,37.50
2019-05-09T06:40:38.294Z,37.20
2019-05-09T06:43:19.711Z,37.70
2019-05-09T06:46:27.571Z,36.90
2019-05-09T06:49:17.859Z,37.60
2019-05-09T06:51:27.537Z,36.90
2019-05-09T06:53:54.857Z,37.20
2019-05-09T06:56:22.622Z,36.60
2019-05-09T06:58:51.833Z,36.60
2019-05-09T07:01:38.910Z,36.60
2019-05-09T07:04:15.225Z,36.70
2019-05-09T07:06:48.310Z,36.30
2019-05-09T07:09:25.055Z,36.10
2019-05-09T07:11:52.961Z,36.20
2019-05-09T07:14:40.999Z,36.30
2019-05-09T07:17:08.658Z,36.30
2019-05-09T07:19:38.449Z,36.00
2019-05-09T07:22:14.529Z,35.70
2019-05-09T07:25:13.796Z,35.90
2019-05-09T07:27:41.662Z,35.80
2019-05-09T07:30:29.078Z,35.50
2019-05-09T07:33:10.217Z,35.30
2019-05-09T07:35:38.317Z,35.30
2019-05-09T07:38:08.286Z,35.00
2019-05-09T07:40:38.952Z,35.30
2019-05-09T07:43:09.807Z,36.00
2019-05-09T07:45:39.471Z,35.40
2019-05-09T07:48:07.740Z,34.50
2019-05-09T07:50:38.917Z,34.70
2019-05-09T07:53:09.171Z,34.70
2019-05-09T07:55:40.895Z,35.10
2019-05-09T07:58:14.427Z,34.40
2019-05-09T08:00:42.366Z,34.80
2019-05-09T08:03:13.184Z,34.80
2019-05-09T08:05:47.674Z,35.10
2019-05-09T08:08:18.529Z,34.50
2019-05-09T08:10:50.189Z,34.30
2019-05-09T08:13:21.570Z,34.80
2019-05-09T08:15:49.954Z,34.00
2019-05-09T08:18:21.072Z,34.10
2019-05-09T08:20:48.853Z,33.70
2019-05-09T08:23:18.044Z,33.80
2019-05-09T08:25:48.361Z,33.50
2019-05-09T08:28:17.711Z,33.70
2019-05-09T08:30:52.502Z,33.80
2019-05-09T08:33:20.216Z,33.20
2019-05-09T08:35:52.367Z,33.30
2019-05-09T08:38:19.969Z,33.10
2019-05-09T08:40:51.770Z,33.10
2019-05-09T08:43:25.274Z,33.90
2019-05-09T08:45:53.006Z,32.80
2019-05-09T08:48:23.410Z,32.50
2019-05-09T08:50:59.777Z,32.60
2019-05-09T08:53:32.781Z,32.50
2019-05-09T08:56:00.696Z,32.60
2019-05-09T08:58:29.561Z,32.60
2019-05-09T09:01:03.713Z,32.30
2019-05-09T09:03:28.456Z,32.00
2019-05-09T09:05:57.701Z,31.70
2019-05-09T09:08:28.396Z,31.30
2019-05-09T09:10:57.644Z,31.10
2019-05-09T09:13:25.007Z,30.70
2019-05-09T09:16:14.407Z,31.20
2019-05-09T09:18:29.091Z,31.10
2019-05-09T09:20:58.833Z,31.50
2019-05-09T09:23:42.359Z,31.20
2019-05-09T09:25:58.328Z,30.60
2019-05-09T09:28:34.771Z,30.80
2019-05-09T09:31:02.487Z,30.90
2019-05-09T09:33:34.634Z,31.60
2019-05-09T09:36:04.229Z,32.30
2019-05-09T09:38:31.908Z,30.90
2019-05-09T09:41:04.307Z,30.90
2019-05-09T09:43:34.389Z,30.40
2019-05-09T09:46:10.992Z,30.60
2019-05-09T09:48:39.741Z,30.90
2019-05-09T09:51:08.231Z,30.80
2019-05-09T09:53:38.694Z,31.20
2019-05-09T09:56:11.135Z,31.50
2019-05-09T09:58:39.343Z,31.20
2019-05-09T10:01:29.193Z,30.90
2019-05-09T10:04:19.341Z,31.00
2019-05-09T10:06:43.070Z,30.90
2019-05-09T10:09:13.886Z,30.90
2019-05-09T10:11:43.789Z,30.70
2019-05-09T10:14:18.623Z,30.80
2019-05-09T10:17:21.616Z,30.70
2019-05-09T10:20:09.172Z,31.20
2019-05-09T10:22:44.704Z,31.10
2019-05-09T10:25:10.733Z,31.30
2019-05-09T10:27:43.160Z,31.80
2019-05-09T10:30:15.297Z,30.80
2019-05-09T10:32:43.110Z,31.00
2019-05-09T10:35:19.564Z,31.60
2019-05-09T10:37:48.478Z,30.80
2019-05-09T10:40:23.999Z,30.30
2019-05-09T10:43:13.839Z,30.60
2019-05-09T10:46:19.341Z,29.80
2019-05-09T10:48:52.908Z,29.00
2019-05-09T10:51:23.389Z,29.20
2019-05-09T10:53:52.701Z,29.60
2019-05-09T10:56:30.891Z,29.40
2019-05-09T10:58:58.805Z,29.60
2019-05-09T11:01:29.660Z,30.00
2019-05-09T11:04:00.169Z,30.00
2019-05-09T11:06:33.462Z,30.10
2019-05-09T11:09:03.988Z,30.00
2019-05-09T11:11:35.945Z,29.70
2019-05-09T11:14:29.611Z,29.90
2019-05-09T11:16:49.785Z,30.10
2019-05-09T11:19:18.373Z,29.80
2019-05-09T11:21:47.859Z,30.00
2019-05-09T11:24:18.655Z,30.40
2019-05-09T11:26:48.108Z,29.90
2019-05-09T11:29:19.162Z,30.00
2019-05-09T11:31:47.733Z,30.00
2019-05-09T11:34:24.388Z,30.00
2019-05-09T11:36:57.943Z,30.00
2019-05-09T11:39:38.195Z,29.70
2019-05-09T11:42:06.565Z,29.70
2019-05-09T11:44:34.473Z,30.30
2019-05-09T11:47:23.008Z,30.00
2019-05-09T11:49:39.017Z,30.40
2019-05-09T11:52:09.981Z,29.90
2019-05-09T11:54:38.930Z,30.30
2019-05-09T11:57:09.261Z,30.70
2019-05-09T11:59:38.423Z,30.40
2019-05-09T12:02:08.946Z,30.00
2019-05-09T12:04:37.976Z,30.50
2019-05-09T12:07:07.756Z,30.20
2019-05-09T12:09:35.130Z,30.30
2019-05-09T12:12:02.900Z,30.20
2019-05-09T12:14:32.126Z,30.20
2019-05-09T12:16:59.858Z,30.10
2019-05-09T12:19:29.489Z,29.90
2019-05-09T12:22:00.169Z,30.10
2019-05-09T12:24:29.572Z,30.30
2019-05-09T12:26:59.765Z,30.80
2019-05-09T12:29:28.747Z,31.00
2019-05-09T12:31:56.572Z,30.20
2019-05-09T12:34:24.553Z,30.20
2019-05-09T12:36:52.234Z,30.00
2019-05-09T12:39:22.890Z,30.00
2019-05-09T12:41:53.515Z,30.00
2019-05-09T12:44:24.767Z,30.10
2019-05-09T12:46:51.238Z,29.90
2019-05-09T12:49:19.353Z,29.90
2019-05-09T12:51:58.121Z,29.90
2019-05-09T12:54:28.495Z,30.00
2019-05-09T12:56:58.965Z,29.90
2019-05-09T12:59:28.675Z,30.70
2019-05-09T13:01:58.087Z,30.30
2019-05-09T13:04:28.697Z,30.70
2019-05-09T13:06:58.756Z,30.70
2019-05-09T13:09:28.629Z,31.00
2019-05-09T13:11:57.833Z,31.00
2019-05-09T13:14:28.406Z,31.00
2019-05-09T13:17:04.196Z,31.00
2019-05-09T13:19:38.272Z,31.00
2019-05-09T13:22:08.077Z,31.20
2019-05-09T13:24:44.646Z,30.90
2019-05-09T13:27:12.437Z,31.00
2019-05-09T13:29:40.182Z,31.50
2019-05-09T13:32:08.868Z,31.60
2019-05-09T13:34:38.096Z,32.00
2019-05-09T13:37:08.759Z,32.40
2019-05-09T13:39:35.760Z,33.00
2019-05-09T13:42:03.617Z,33.50
2019-05-09T13:44:31.540Z,33.50
2019-05-09T13:46:59.186Z,33.60
2019-05-09T13:49:28.591Z,33.70
2019-05-09T13:52:01.295Z,33.60
2019-05-09T13:54:28.351Z,33.60
2019-05-09T13:57:00.371Z,33.80
2019-05-09T13:59:30.078Z,33.40
2019-05-09T14:02:00.115Z,33.40
2019-05-09T14:04:28.640Z,33.40
2019-05-09T14:07:01.207Z,33.40
2019-05-09T14:09:29.838Z,33.40
2019-05-09T14:11:58.957Z,33.60
2019-05-09T14:14:30.080Z,33.90
2019-05-09T14:16:59.184Z,33.70
2019-05-09T14:19:40.538Z,33.70
2019-05-09T14:22:00.649Z,34.10
2019-05-09T14:24:28.375Z,34.20
2019-05-09T14:26:58.254Z,34.60
2019-05-09T14:29:33.469Z,34.90
2019-05-09T14:32:04.960Z,34.80
2019-05-09T14:34:33.739Z,35.30
2019-05-09T14:37:01.473Z,35.40
2019-05-09T14:39:31.721Z,35.50
2019-05-09T14:41:59.598Z,35.60
2019-05-09T14:44:27.827Z,35.80
2019-05-09T14:46:55.632Z,36.20
2019-05-09T14:49:23.480Z,36.30
2019-05-09T14:51:51.223Z,36.30
2019-05-09T14:54:19.223Z,36.70
2019-05-09T14:56:48.589Z,36.90
2019-05-09T14:59:18.676Z,37.20
2019-05-09T15:01:49.799Z,37.20
2019-05-09T15:04:18.912Z,37.50
2019-05-09T15:06:48.814Z,37.50
2019-05-09T15:09:18.234Z,37.80
2019-05-09T15:11:48.406Z,38.00
2019-05-09T15:14:17.950Z,38.00
2019-05-09T15:16:45.065Z,38.20
2019-05-09T15:19:12.687Z,38.40
2019-05-09T15:21:40.433Z,38.90
2019-05-09T15:24:09.316Z,39.00
2019-05-09T15:26:37.477Z,39.20
2019-05-09T15:29:07.740Z,39.40
2019-05-09T15:31:34.880Z,39.50
2019-05-09T15:34:02.522Z,39.50
2019-05-09T15:36:30.270Z,39.70
2019-05-09T15:38:59.087Z,40.00
2019-05-09T15:41:27.729Z,39.80
2019-05-09T15:43:57.765Z,40.00
2019-05-09T15:46:33.574Z,39.90
2019-05-09T15:49:01.261Z,40.20
2019-05-09T15:51:32.000Z,39.50
2019-05-09T15:53:58.388Z,39.00
2019-05-09T15:56:28.679Z,39.00
2019-05-09T15:58:57.868Z,39.20
2019-05-09T16:01:27.712Z,39.60
2019-05-09T16:03:54.739Z,38.90
2019-05-09T16:06:22.394Z,39.20
2019-05-09T16:08:50.227Z,39.70
2019-05-09T16:11:21.256Z,39.60
2019-05-09T16:13:52.676Z,40.20
2019-05-09T16:16:20.652Z,41.10
2019-05-09T16:18:48.747Z,42.20
2019-05-09T16:21:16.806Z,43.30
2019-05-09T16:23:44.733Z,45.10
2019-05-09T16:26:12.482Z,46.00
2019-05-09T16:28:40.190Z,46.70
2019-05-09T16:31:07.991Z,47.10
2019-05-09T16:33:35.699Z,47.20
2019-05-09T16:36:03.456Z,47.00
2019-05-09T16:38:42.089Z,45.90
2019-05-09T16:41:00.729Z,45.90
2019-05-09T16:43:28.504Z,45.70
2019-05-09T16:45:58.156Z,45.60
2019-05-09T16:48:27.531Z,45.70
2019-05-09T16:51:03.223Z,45.40
2019-05-09T16:53:24.682Z,45.40
2019-05-09T16:55:52.348Z,45.10
2019-05-09T16:58:20.371Z,44.20
2019-05-09T17:00:50.196Z,44.50
2019-05-09T17:03:18.194Z,44.40
2019-05-09T17:05:46.152Z,44.20
2019-05-09T17:08:13.865Z,44.30
2019-05-09T17:10:41.614Z,44.50
2019-05-09T17:13:09.625Z,44.70
2019-05-09T17:15:38.903Z,45.00
2019-05-09T17:18:07.417Z,45.10
2019-05-09T17:20:54.742Z,45.30
2019-05-09T17:23:23.178Z,46.40
2019-05-09T17:25:51.026Z,47.30
2019-05-09T17:28:18.952Z,48.30
2019-05-09T17:30:49.005Z,49.40
2019-05-09T17:33:16.357Z,51.10
2019-05-09T17:35:44.034Z,53.10
2019-05-09T17:38:11.794Z,53.40
2019-05-09T17:40:39.847Z,53.70
2019-05-09T17:43:08.355Z,54.20
2019-05-09T17:45:39.461Z,54.00
2019-05-09T17:48:05.891Z,55.80
2019-05-09T17:50:33.646Z,56.20
2019-05-09T17:53:01.385Z,55.50
2019-05-09T17:55:30.108Z,54.10
2019-05-09T17:57:58.682Z,54.00
2019-05-09T18:00:27.957Z,54.20
2019-05-09T18:02:57.878Z,53.80
2019-05-09T18:05:25.646Z,54.40
2019-05-09T18:07:53.316Z,55.50
2019-05-09T18:10:21.129Z,56.30
2019-05-09T18:12:48.974Z,55.50
2019-05-09T18:15:18.589Z,56.70
2019-05-09T18:17:47.913Z,56.70
2019-05-09T18:20:17.585Z,56.60
2019-05-09T18:22:47.760Z,56.30
2019-05-09T18:25:15.462Z,56.40
2019-05-09T18:27:43.217Z,56.10
2019-05-09T18:30:12.137Z,55.90
2019-05-09T18:32:57.936Z,55.90
2019-05-09T18:35:27.830Z,56.30
2019-05-09T18:37:56.041Z,56.30
2019-05-09T18:40:23.914Z,56.40
2019-05-09T18:42:51.733Z,56.70
2019-05-09T18:45:20.067Z,56.90
2019-05-09T18:47:48.271Z,57.10
2019-05-09T18:50:16.475Z,57.10
2019-05-09T18:52:44.461Z,58.60
2019-05-09T18:55:14.101Z,58.40
2019-05-09T18:57:41.758Z,58.00
2019-05-09T19:00:10.478Z,58.30
2019-05-09T19:02:41.062Z,57.60
2019-05-09T19:05:12.837Z,57.80
2019-05-09T19:07:39.284Z,58.10
2019-05-09T19:10:07.636Z,57.80
2019-05-09T19:12:35.564Z,58.30
2019-05-09T19:15:05.736Z,57.90
2019-05-09T19:17:50.697Z,57.20
2019-05-09T19:20:56.144Z,57.30
2019-05-09T19:23:24.023Z,57.30
2019-05-09T19:25:51.902Z,57.10
2019-05-09T19:28:23.671Z,57.10
2019-05-09T19:30:49.741Z,57.30
2019-05-09T19:33:17.864Z,57.30
2019-05-09T19:35:45.802Z,57.10
2019-05-09T19:38:13.730Z,57.80
2019-05-09T19:40:41.642Z,57.80
2019-05-09T19:43:09.612Z,58.20
2019-05-09T19:45:37.486Z,58.60
2019-05-09T19:48:05.482Z,59.30
2019-05-09T19:50:33.394Z,59.50
2019-05-09T19:53:01.290Z,59.70
2019-05-09T19:55:29.136Z,59.40
2019-05-09T19:57:57.185Z,59.50
2019-05-09T20:00:25.089Z,59.10
2019-05-09T20:02:53.022Z,59.40
2019-05-09T20:05:21.074Z,59.60
2019-05-09T20:07:49.080Z,59.30
2019-05-09T20:10:34.568Z,60.00
2019-05-09T20:13:25.204Z,59.90
2019-05-09T20:15:55.606Z,60.00
2019-05-09T20:18:23.592Z,60.30
2019-05-09T20:20:51.365Z,59.70
2019-05-09T20:23:19.141Z,60.10
2019-05-09T20:25:46.926Z,60.00
2019-05-09T20:28:14.903Z,59.80
2019-05-09T20:30:42.833Z,60.00
2019-05-09T20:33:10.686Z,59.30
2019-05-09T20:35:38.566Z,60.00
2019-05-09T20:38:06.393Z,60.90
2019-05-09T20:40:34.417Z,60.70
2019-05-09T20:43:02.393Z,60.60
2019-05-09T20:45:30.482Z,59.50
2019-05-09T20:47:58.208Z,60.20
2019-05-09T20:50:26.066Z,59.60
2019-05-09T20:53:08.526Z,59.10
2019-05-09T20:55:23.986Z,59.30
2019-05-09T20:57:52.212Z,59.10
2019-05-09T21:00:20.114Z,59.20
2019-05-09T21:02:48.110Z,60.00
2019-05-09T21:05:16.100Z,60.60
2019-05-09T21:07:43.875Z,60.70
2019-05-09T21:10:12.263Z,60.90
2019-05-09T21:12:40.069Z,60.70
2019-05-09T21:15:08.891Z,60.80
2019-05-09T21:17:36.981Z,60.70
2019-05-09T21:20:05.089Z,60.50
2019-05-09T21:22:32.872Z,60.60
2019-05-09T21:25:00.873Z,60.30
2019-05-09T21:27:28.754Z,60.40
2019-05-09T21:29:56.789Z,60.30
2019-05-09T21:32:24.766Z,60.40
2019-05-09T21:34:52.513Z,60.10
2019-05-09T21:37:22.132Z,60.20
2019-05-09T21:39:52.452Z,60.30
2019-05-09T21:42:21.861Z,60.40
2019-05-09T21:44:49.729Z,60.80
2019-05-09T21:47:17.703Z,60.90
2019-05-09T21:49:45.707Z,61.90
2019-05-09T21:52:13.590Z,61.80
2019-05-09T21:54:41.370Z,62.30
2019-05-09T21:57:09.225Z,62.40
2019-05-09T21:59:36.970Z,62.40
2019-05-09T22:02:05.193Z,61.80
2019-05-09T22:04:33.395Z,62.60
2019-05-09T22:07:01.181Z,62.30
2019-05-09T22:09:29.067Z,62.80
2019-05-09T22:11:56.929Z,62.80
2019-05-09T22:14:26.893Z,63.00
2019-05-09T22:16:59.784Z,63.10
2019-05-09T22:19:27.768Z,63.10
2019-05-09T22:21:55.609Z,63.00
2019-05-09T22:24:23.381Z,63.30
2019-05-09T22:26:51.280Z,63.40
2019-05-09T22:29:19.060Z,63.10
2019-05-09T22:31:46.888Z,63.00
2019-05-09T22:34:14.571Z,62.30
2019-05-09T22:36:42.456Z,62.90
2019-05-09T22:39:11.624Z,62.00
2019-05-09T22:41:39.406Z,61.80
2019-05-09T22:44:07.448Z,61.80
2019-05-09T22:46:35.615Z,62.00
2019-05-09T22:49:03.680Z,61.50
2019-05-09T22:51:32.028Z,61.60
2019-05-09T22:54:12.424Z,61.40
2019-05-09T22:56:29.559Z,61.20
2019-05-09T22:58:57.256Z,61.20
2019-05-09T23:01:25.345Z,61.10
2019-05-09T23:03:53.378Z,61.00
2019-05-09T23:06:21.744Z,61.00
2019-05-09T23:08:49.704Z,60.90
2019-05-09T23:11:17.735Z,60.90
2019-05-09T23:13:51.462Z,60.90
2019-05-09T23:16:21.542Z,60.80
2019-05-09T23:18:49.908Z,60.80
2019-05-09T23:21:18.018Z,60.70
2019-05-09T23:24:27.345Z,60.70
2019-05-09T23:26:44.328Z,60.80
2019-05-09T23:29:12.496Z,60.70
2019-05-09T23:32:02.904Z,60.70
2019-05-09T23:34:30.692Z,60.70
2019-05-09T23:36:59.235Z,60.70
2019-05-09T23:39:30.781Z,60.70
2019-05-09T23:41:58.569Z,60.70
2019-05-09T23:44:26.732Z,60.80
2019-05-09T23:46:58.758Z,60.70
2019-05-09T23:49:26.942Z,60.80
2019-05-09T23:51:54.904Z,61.00
2019-05-09T23:54:46.767Z,61.50
2019-05-09T23:57:30.090Z,61.80
